Time;durP1;ratioP1;P1;durP2;ratioP2;P2;SDS_P1;SDS_P2;PMS_P1;PMS_P2;Temp;Humidity;BMP_temperature;BMP_pressure;BME280_temperature;BME280_humidity;BME280_pressure;Samples;Min_cycle;Max_cycle;Signal;HPM_P1;HPM_P2
2021/01/03 00:01:20;;;;;;;;;;;;;;;;;;5012468;28;19925;-69
2021/01/03 00:03:46;;;;;;;;;;;;;;;;;;5011580;28;19925;-69
2021/01/03 00:06:13;;;;;;;;;;;;;;;;;;5012286;28;19926;-69
2021/01/03 00:08:39;;;;;;;;;;;;;;;;;;5010139;28;20398;-69
2021/01/03 00:11:05;;;;;;;;;;;;;;;;;;5011344;28;19936;-69
2021/01/03 00:13:32;;;;;;;;;;;;;;;;;;5010204;28;20149;-69
2021/01/03 00:15:58;;;;;;;;;;;;;;;;;;5010566;28;20008;-69
2021/01/03 00:18:25;;;;;;;;;;;;;;;;;;5010243;28;20371;-69
2021/01/03 00:20:51;;;;;;;;;;;;;;;;;;5011045;28;20020;-69
2021/01/03 00:23:18;;;;;;;;;;;;;;;;;;5009395;28;19925;-69
2021/01/03 00:25:44;;;;;;;;;;;;;;;;;;5011128;28;20075;-69
2021/01/03 00:28:11;;;;;;;;;;;;;;;;;;5009849;28;20318;-69
2021/01/03 00:30:37;;;;;;;;;;;;;;;;;;5011354;28;19964;-69
2021/01/03 00:33:04;;;;;;;;;;;;;;;;;;5010968;28;19929;-68
2021/01/03 00:35:30;;;;;;;;;;;;;;;;;;5009965;28;19925;-69
2021/01/03 00:37:57;;;;;;;;;;;;;;;;;;5010646;28;20387;-69
2021/01/03 00:40:23;;;;;;;;;;;;;;;;;;5010169;28;19994;-69
2021/01/03 00:42:49;;;;;;;;;;;;;;;;;;5011147;28;19948;-69
2021/01/03 00:45:16;;;;;;;;;;;;;;;;;;5010953;28;19925;-69
2021/01/03 00:47:42;;;;;;;;;;;;;;;;;;5010670;28;19951;-67
2021/01/03 00:50:09;;;;;;;;;;;;;;;;;;5010654;28;19931;-67
2021/01/03 00:52:35;;;;;;;;;;;;;;;;;;5004481;28;19926;-67
2021/01/03 00:55:02;;;;;;;;;;;;;;;;;;5009838;28;19925;-67
2021/01/03 00:57:28;;;;;;;;;;;;;;;;;;5011130;28;19925;-67
2021/01/03 00:59:54;;;;;;;;;;;;;;;;;;5011044;28;19929;-66
2021/01/03 01:02:21;;;;;;;;;;;;;;;;;;5007224;28;19929;-66
2021/01/03 01:04:47;;;;;;;;;;;;;;;;;;5011464;28;20004;-67
2021/01/03 01:07:14;;;;;;;;;;;;;;;;;;5009220;28;19936;-69
2021/01/03 01:09:40;;;;;;;;;;;;;;;;;;5010354;28;19985;-69
2021/01/03 01:12:07;;;;;;;;;;;;;;;;;;5010074;28;19925;-69
2021/01/03 01:14:33;;;;;;;;;;;;;;;;;;5011021;28;20365;-69
2021/01/03 01:17:00;;;;;;;;;;;;;;;;;;5006490;28;19987;-69
2021/01/03 01:19:26;;;;;;;;;;;;;;;;;;5010348;28;19948;-69
2021/01/03 01:21:53;;;;;;;;;;;;;;;;;;5013353;28;19929;-69
2021/01/03 01:24:19;;;;;;;;;;;;;;;;;;5014827;28;19932;-69
2021/01/03 01:26:45;;;;;;;;;;;;;;;;;;5014738;28;19932;-69
2021/01/03 01:29:12;;;;;;;;;;;;;;;;;;5014942;28;19926;-68
2021/01/03 01:31:38;;;;;;;;;;;;;;;;;;5014188;28;19925;-69
2021/01/03 01:34:05;;;;;;;;;;;;;;;;;;5010809;28;20020;-69
2021/01/03 01:36:31;;;;;;;;;;;;;;;;;;5011415;28;19933;-69
2021/01/03 01:38:58;;;;;;;;;;;;;;;;;;5013871;28;20367;-67
2021/01/03 01:41:24;;;;;;;;;;;;;;;;;;5014964;28;20013;-67
2021/01/03 01:43:51;;;;;;;;;;;;;;;;;;5012922;28;19936;-69
2021/01/03 01:46:17;;;;;;;;;;;;;;;;;;5013969;28;19929;-69
2021/01/03 01:48:46;;;;;;;;;;;;;;;;;;5007145;28;19925;-69
2021/01/03 01:51:13;;;;;;;;;;;;;;;;;;5006004;28;20012;-69
2021/01/03 01:53:39;;;;;;;;;;;;;;;;;;5013918;28;19934;-69
2021/01/03 01:56:05;;;;;;;;;;;;;;;;;;5010171;28;19926;-67
2021/01/03 01:58:32;;;;;;;;;;;;;;;;;;5014741;28;20011;-67
2021/01/03 02:00:58;;;;;;;;;;;;;;;;;;5014555;28;20020;-67
2021/01/03 02:03:25;;;;;;;;;;;;;;;;;;5010767;28;19930;-68
2021/01/03 02:05:51;;;;;;;;;;;;;;;;;;5003668;28;20346;-67
2021/01/03 02:08:18;;;;;;;;;;;;;;;;;;5009552;28;19933;-67
2021/01/03 02:10:44;;;;;;;;;;;;;;;;;;5014132;28;19971;-67
2021/01/03 02:13:11;;;;;;;;;;;;;;;;;;5011823;28;20016;-67
2021/01/03 02:15:37;;;;;;;;;;;;;;;;;;5013447;28;19955;-70
2021/01/03 02:18:04;;;;;;;;;;;;;;;;;;5013662;28;19925;-67
2021/01/03 02:20:32;;;;;;;;;;;;;;;;;;5011020;28;19930;-69
2021/01/03 02:22:59;;;;;;;;;;;;;;;;;;5014628;28;19925;-70
2021/01/03 02:25:25;;;;;;;;;;;;;;;;;;5010581;28;19925;-67
2021/01/03 02:27:53;;;;;;;;;;;;;;;;;;5005680;28;19941;-67
2021/01/03 02:30:19;;;;;;;;;;;;;;;;;;5014292;28;19965;-67
2021/01/03 02:32:45;;;;;;;;;;;;;;;;;;5013352;28;19940;-67
2021/01/03 02:35:12;;;;;;;;;;;;;;;;;;5012286;28;19925;-67
2021/01/03 02:37:38;;;;;;;;;;;;;;;;;;5004761;28;19932;-68
2021/01/03 02:40:05;;;;;;;;;;;;;;;;;;5013249;28;19956;-68
2021/01/03 02:42:31;;;;;;;;;;;;;;;;;;5013327;28;20015;-67
2021/01/03 02:44:58;;;;;;;;;;;;;;;;;;5012010;28;19965;-67
2021/01/03 02:47:24;;;;;;;;;;;;;;;;;;5008052;28;19937;-67
2021/01/03 02:49:51;;;;;;;;;;;;;;;;;;5012505;28;19933;-68
2021/01/03 02:52:17;;;;;;;;;;;;;;;;;;5008778;28;19925;-67
2021/01/03 02:54:43;;;;;;;;;;;;;;;;;;5013440;28;19930;-68
2021/01/03 02:57:10;;;;;;;;;;;;;;;;;;5014604;28;19926;-68
2021/01/03 02:59:36;;;;;;;;;;;;;;;;;;5010933;28;19979;-68
2021/01/03 03:02:03;;;;;;;;;;;;;;;;;;5009609;28;19932;-67
2021/01/03 03:04:29;;;;;;;;;;;;;;;;;;5014096;28;19926;-68
2021/01/03 03:06:56;;;;;;;;;;;;;;;;;;5009846;28;19926;-68
2021/01/03 03:09:22;;;;;;;;;;;;;;;;;;5014306;28;19931;-67
2021/01/03 03:11:48;;;;;;;;;;;;;;;;;;5013229;28;20024;-67
2021/01/03 03:14:15;;;;;;;;;;;;;;;;;;5012828;28;19925;-67
2021/01/03 03:16:41;;;;;;;;;;;;;;;;;;5013068;28;19933;-68
2021/01/03 03:19:08;;;;;;;;;;;;;;;;;;5009686;28;19925;-67
2021/01/03 03:21:34;;;;;;;;;;;;;;;;;;5010107;28;19935;-67
2021/01/03 03:24:01;;;;;;;;;;;;;;;;;;5009956;28;19974;-67
2021/01/03 03:26:27;;;;;;;;;;;;;;;;;;5012044;28;19945;-68
2021/01/03 03:28:54;;;;;;;;;;;;;;;;;;5011270;28;20359;-66
2021/01/03 03:31:20;;;;;;;;;;;;;;;;;;5011857;28;20407;-67
2021/01/03 03:33:46;;;;;;;;;;;;;;;;;;5004892;28;19925;-67
2021/01/03 03:36:13;;;;;;;;;;;;;;;;;;5011466;28;19925;-67
2021/01/03 03:38:39;;;;;;;;;;;;;;;;;;5012433;28;19931;-67
2021/01/03 03:41:06;;;;;;;;;;;;;;;;;;5002973;28;19956;-68
2021/01/03 03:43:32;;;;;;;;;;;;;;;;;;5010444;28;19925;-68
2021/01/03 03:45:59;;;;;;;;;;;;;;;;;;5011782;28;19926;-67
2021/01/03 03:48:25;;;;;;;;;;;;;;;;;;5004304;28;19934;-70
2021/01/03 03:50:51;;;;;;;;;;;;;;;;;;5007414;28;19933;-69
2021/01/03 03:53:18;;;;;;;;;;;;;;;;;;5008462;28;19925;-70
2021/01/03 03:55:44;;;;;;;;;;;;;;;;;;5006929;28;19935;-68
2021/01/03 03:58:11;;;;;;;;;;;;;;;;;;5011465;28;19929;-67
2021/01/03 04:00:37;;;;;;;;;;;;;;;;;;5011469;28;19925;-67
2021/01/03 04:03:04;;;;;;;;;;;;;;;;;;5005251;28;19926;-67
2021/01/03 04:05:30;;;;;;;;;;;;;;;;;;5012271;28;20020;-72
2021/01/03 04:07:57;;;;;;;;;;;;;;;;;;5006239;28;19975;-67
2021/01/03 04:10:23;;;;;;;;;;;;;;;;;;5012201;28;19932;-68
2021/01/03 04:12:49;;;;;;;;;;;;;;;;;;5008611;28;19968;-68
2021/01/03 04:15:16;;;;;;;;;;;;;;;;;;5011824;28;19938;-67
2021/01/03 04:17:44;;;;;;;;;;;;;;;;;;5010271;28;20283;-67
2021/01/03 04:20:10;;;;;;;;;;;;;;;;;;5006467;28;19930;-67
2021/01/03 04:22:37;;;;;;;;;;;;;;;;;;5011234;28;19925;-69
2021/01/03 04:25:03;;;;;;;;;;;;;;;;;;5008301;28;19925;-69
2021/01/03 04:27:30;;;;;;;;;;;;;;;;;;5010475;28;19944;-68
2021/01/03 04:29:56;;;;;;;;;;;;;;;;;;5004905;28;19925;-70
2021/01/03 04:32:23;;;;;;;;;;;;;;;;;;5011125;28;19925;-67
2021/01/03 04:34:49;;;;;;;;;;;;;;;;;;5011279;28;19926;-68
2021/01/03 04:37:15;;;;;;;;;;;;;;;;;;5006202;28;19925;-68
2021/01/03 04:39:42;;;;;;;;;;;;;;;;;;5005121;28;19934;-68
2021/01/03 04:42:08;;;;;;;;;;;;;;;;;;5010400;28;19948;-67
2021/01/03 04:44:35;;;;;;;;;;;;;;;;;;5007335;28;19925;-69
2021/01/03 04:47:01;;;;;;;;;;;;;;;;;;5011783;28;20223;-67
2021/01/03 04:49:28;;;;;;;;;;;;;;;;;;5010208;28;19933;-68
2021/01/03 04:51:54;;;;;;;;;;;;;;;;;;5010348;28;19926;-70
2021/01/03 04:54:21;;;;;;;;;;;;;;;;;;5003383;28;19938;-69
2021/01/03 04:56:47;;;;;;;;;;;;;;;;;;5010188;28;19925;-67
2021/01/03 04:59:14;;;;;;;;;;;;;;;;;;5010495;28;20135;-67
2021/01/03 05:01:40;;;;;;;;;;;;;;;;;;5009490;28;19940;-71
2021/01/03 05:04:07;;;;;;;;;;;;;;;;;;5010325;28;20326;-68
2021/01/03 05:06:33;;;;;;;;;;;;;;;;;;5005708;28;20332;-67
2021/01/03 05:08:59;;;;;;;;;;;;;;;;;;5007729;28;19937;-69
2021/01/03 05:11:26;;;;;;;;;;;;;;;;;;5010712;28;19925;-67
2021/01/03 05:13:54;;;;;;;;;;;;;;;;;;5011409;28;19925;-69
2021/01/03 05:16:20;;;;;;;;;;;;;;;;;;5003622;28;19936;-67
2021/01/03 05:18:47;;;;;;;;;;;;;;;;;;5008742;28;19926;-67
2021/01/03 05:21:13;;;;;;;;;;;;;;;;;;5013242;28;19931;-67
2021/01/03 05:23:39;;;;;;;;;;;;;;;;;;5015592;28;19925;-67
2021/01/03 05:26:06;;;;;;;;;;;;;;;;;;5016696;28;20024;-67
2021/01/03 05:28:32;;;;;;;;;;;;;;;;;;5018632;28;19925;-67
2021/01/03 05:30:59;;;;;;;;;;;;;;;;;;5010810;28;19952;-67
2021/01/03 05:33:25;;;;;;;;;;;;;;;;;;5012229;28;20295;-67
2021/01/03 05:35:52;;;;;;;;;;;;;;;;;;5013219;28;19925;-68
2021/01/03 05:38:18;;;;;;;;;;;;;;;;;;5011654;28;19932;-67
2021/01/03 05:40:45;;;;;;;;;;;;;;;;;;5008390;28;20250;-67
2021/01/03 05:43:12;;;;;;;;;;;;;;;;;;5011678;28;19937;-67
2021/01/03 05:45:39;;;;;;;;;;;;;;;;;;5012699;28;19984;-67
2021/01/03 05:48:05;;;;;;;;;;;;;;;;;;5011194;28;19968;-67
2021/01/03 05:50:31;;;;;;;;;;;;;;;;;;5011685;28;19925;-67
2021/01/03 05:52:58;;;;;;;;;;;;;;;;;;5010610;28;19925;-67
2021/01/03 05:55:24;;;;;;;;;;;;;;;;;;5009722;28;19933;-67
2021/01/03 05:57:51;;;;;;;;;;;;;;;;;;5010261;28;20525;-67
2021/01/03 06:00:17;;;;;;;;;;;;;;;;;;5011129;28;19925;-67
2021/01/03 06:02:44;;;;;;;;;;;;;;;;;;5010400;28;19980;-67
2021/01/03 06:05:10;;;;;;;;;;;;;;;;;;5011565;28;19936;-67
2021/01/03 06:07:37;;;;;;;;;;;;;;;;;;5011360;28;19932;-67
2021/01/03 06:10:03;;;;;;;;;;;;;;;;;;5014351;28;19969;-67
2021/01/03 06:12:30;;;;;;;;;;;;;;;;;;5015934;28;19995;-67
2021/01/03 06:14:56;;;;;;;;;;;;;;;;;;5015699;28;19932;-67
2021/01/03 06:17:22;;;;;;;;;;;;;;;;;;5015772;28;19937;-67
2021/01/03 06:19:49;;;;;;;;;;;;;;;;;;5016219;28;19925;-67
2021/01/03 06:22:15;;;;;;;;;;;;;;;;;;5014942;28;19929;-67
2021/01/03 06:24:42;;;;;;;;;;;;;;;;;;5015438;28;20398;-67
2021/01/03 06:27:10;;;;;;;;;;;;;;;;;;5012144;28;19953;-67
2021/01/03 06:29:36;;;;;;;;;;;;;;;;;;5014085;28;19973;-67
2021/01/03 06:32:03;;;;;;;;;;;;;;;;;;5011531;28;19926;-67
2021/01/03 06:34:29;;;;;;;;;;;;;;;;;;5012081;28;20388;-67
2021/01/03 06:36:56;;;;;;;;;;;;;;;;;;5014756;28;20021;-67
2021/01/03 06:39:22;;;;;;;;;;;;;;;;;;5015403;28;19925;-67
2021/01/03 06:41:48;;;;;;;;;;;;;;;;;;5014679;28;19931;-67
2021/01/03 06:44:15;;;;;;;;;;;;;;;;;;5014315;28;20012;-67
2021/01/03 06:46:41;;;;;;;;;;;;;;;;;;5014304;28;19933;-67
2021/01/03 06:49:08;;;;;;;;;;;;;;;;;;5012836;28;19951;-67
2021/01/03 06:51:34;;;;;;;;;;;;;;;;;;5012624;28;19932;-67
2021/01/03 06:54:01;;;;;;;;;;;;;;;;;;5014331;28;20011;-67
2021/01/03 06:56:27;;;;;;;;;;;;;;;;;;5006550;28;19932;-67
2021/01/03 06:58:54;;;;;;;;;;;;;;;;;;5013043;28;19929;-67
2021/01/03 07:01:20;;;;;;;;;;;;;;;;;;5013775;28;19939;-67
2021/01/03 07:03:46;;;;;;;;;;;;;;;;;;5013267;28;19979;-67
2021/01/03 07:06:13;;;;;;;;;;;;;;;;;;5014955;28;19933;-67
2021/01/03 07:08:39;;;;;;;;;;;;;;;;;;5012603;28;19926;-67
2021/01/03 07:11:06;;;;;;;;;;;;;;;;;;5011148;28;19925;-67
2021/01/03 07:13:32;;;;;;;;;;;;;;;;;;5011848;28;20403;-67
2021/01/03 07:15:59;;;;;;;;;;;;;;;;;;5012399;28;20380;-67
2021/01/03 07:18:25;;;;;;;;;;;;;;;;;;5010711;28;20434;-66
2021/01/03 07:20:52;;;;;;;;;;;;;;;;;;5010670;28;20418;-67
2021/01/03 07:23:18;;;;;;;;;;;;;;;;;;5010398;28;19925;-66
2021/01/03 07:25:45;;;;;;;;;;;;;;;;;;5012056;28;20339;-66
2021/01/03 07:28:11;;;;;;;;;;;;;;;;;;5005155;28;20016;-67
2021/01/03 07:30:38;;;;;;;;;;;;;;;;;;5011627;28;19926;-67
2021/01/03 07:33:04;;;;;;;;;;;;;;;;;;5012022;28;19936;-67
2021/01/03 07:35:31;;;;;;;;;;;;;;;;;;5011305;28;19935;-67
2021/01/03 07:37:57;;;;;;;;;;;;;;;;;;5012865;28;20411;-66
2021/01/03 07:40:24;;;;;;;;;;;;;;;;;;5012010;28;19925;-67
2021/01/03 07:42:50;;;;;;;;;;;;;;;;;;5006686;28;19930;-66
2021/01/03 07:45:17;;;;;;;;;;;;;;;;;;5010733;28;19925;-66
2021/01/03 07:47:43;;;;;;;;;;;;;;;;;;5012134;28;19949;-66
2021/01/03 07:50:10;;;;;;;;;;;;;;;;;;5010327;28;20077;-66
2021/01/03 07:52:36;;;;;;;;;;;;;;;;;;5011524;28;19979;-67
2021/01/03 07:55:03;;;;;;;;;;;;;;;;;;5011903;28;19932;-68
2021/01/03 07:57:29;;;;;;;;;;;;;;;;;;5012785;28;19979;-69
2021/01/03 07:59:56;;;;;;;;;;;;;;;;;;5011777;28;19925;-69
2021/01/03 08:02:22;;;;;;;;;;;;;;;;;;5012330;28;19932;-68
2021/01/03 08:04:48;;;;;;;;;;;;;;;;;;5009858;28;19926;-66
2021/01/03 08:07:15;;;;;;;;;;;;;;;;;;5009253;28;19933;-66
2021/01/03 08:09:41;;;;;;;;;;;;;;;;;;5008833;28;19926;-66
2021/01/03 08:12:08;;;;;;;;;;;;;;;;;;5005124;28;19955;-66
2021/01/03 08:14:34;;;;;;;;;;;;;;;;;;5007748;28;19929;-67
2021/01/03 08:17:01;;;;;;;;;;;;;;;;;;5005838;28;19926;-67
2021/01/03 08:19:27;;;;;;;;;;;;;;;;;;5004493;28;19930;-67
2021/01/03 08:21:54;;;;;;;;;;;;;;;;;;5002454;28;19930;-66
2021/01/03 08:24:20;;;;;;;;;;;;;;;;;;5003621;28;20391;-67
2021/01/03 08:26:47;;;;;;;;;;;;;;;;;;5011412;28;20306;-67
2021/01/03 08:29:13;;;;;;;;;;;;;;;;;;5013937;28;19969;-68
2021/01/03 08:31:40;;;;;;;;;;;;;;;;;;5012911;28;20242;-67
2021/01/03 08:34:06;;;;;;;;;;;;;;;;;;5003485;28;20020;-66
2021/01/03 08:36:32;;;;;;;;;;;;;;;;;;5005741;28;19929;-67
2021/01/03 08:38:59;;;;;;;;;;;;;;;;;;5009290;28;19925;-67
2021/01/03 08:41:25;;;;;;;;;;;;;;;;;;5008496;28;19929;-67
2021/01/03 08:43:52;;;;;;;;;;;;;;;;;;5004575;28;19933;-67
2021/01/03 08:46:18;;;;;;;;;;;;;;;;;;5006627;28;19926;-66
2021/01/03 08:48:45;;;;;;;;;;;;;;;;;;5007270;28;19925;-66
2021/01/03 08:51:11;;;;;;;;;;;;;;;;;;5008012;28;19926;-67
2021/01/03 08:53:38;;;;;;;;;;;;;;;;;;5007012;28;19932;-66
2021/01/03 08:56:04;;;;;;;;;;;;;;;;;;5007954;28;19926;-66
2021/01/03 08:58:31;;;;;;;;;;;;;;;;;;5006252;28;19925;-65
2021/01/03 09:00:58;;;;;;;;;;;;;;;;;;5007359;28;20012;-67
2021/01/03 09:03:24;;;;;;;;;;;;;;;;;;5005363;28;19931;-67
2021/01/03 09:05:51;;;;;;;;;;;;;;;;;;5008765;28;19972;-67
2021/01/03 09:08:17;;;;;;;;;;;;;;;;;;5007993;28;20311;-68
2021/01/03 09:10:44;;;;;;;;;;;;;;;;;;5011242;28;20011;-68
2021/01/03 09:13:10;;;;;;;;;;;;;;;;;;5007985;28;19925;-69
2021/01/03 09:15:37;;;;;;;;;;;;;;;;;;5009489;28;20016;-68
2021/01/03 09:18:03;;;;;;;;;;;;;;;;;;5004679;28;20004;-68
2021/01/03 09:20:30;;;;;;;;;;;;;;;;;;5006825;28;19933;-69
2021/01/03 09:22:56;;;;;;;;;;;;;;;;;;5003218;28;19970;-69
2021/01/03 09:25:23;;;;;;;;;;;;;;;;;;5010052;28;19971;-69
2021/01/03 09:27:49;;;;;;;;;;;;;;;;;;5007152;28;19930;-67
2021/01/03 09:30:16;;;;;;;;;;;;;;;;;;5003908;28;19979;-68
2021/01/03 09:32:42;;;;;;;;;;;;;;;;;;5006950;28;19929;-69
2021/01/03 09:35:09;;;;;;;;;;;;;;;;;;5007483;28;19942;-69
2021/01/03 09:37:35;;;;;;;;;;;;;;;;;;5009716;28;19925;-70
2021/01/03 09:40:01;;;;;;;;;;;;;;;;;;5009225;28;19930;-69
2021/01/03 09:42:28;;;;;;;;;;;;;;;;;;5003819;28;19926;-69
2021/01/03 09:44:54;;;;;;;;;;;;;;;;;;5011850;28;20237;-68
2021/01/03 09:47:21;;;;;;;;;;;;;;;;;;5011130;28;19948;-69
2021/01/03 09:49:48;;;;;;;;;;;;;;;;;;5009867;28;19941;-69
2021/01/03 09:52:14;;;;;;;;;;;;;;;;;;5009747;28;19926;-69
2021/01/03 09:54:40;;;;;;;;;;;;;;;;;;5012903;28;19930;-68
2021/01/03 09:57:07;;;;;;;;;;;;;;;;;;5010215;28;19940;-69
2021/01/03 09:59:33;;;;;;;;;;;;;;;;;;5012720;28;19925;-69
2021/01/03 10:02:00;;;;;;;;;;;;;;;;;;5011480;28;19930;-69
2021/01/03 10:04:26;;;;;;;;;;;;;;;;;;5011557;28;19968;-72
2021/01/03 10:06:53;;;;;;;;;;;;;;;;;;5010301;28;19926;-69
2021/01/03 10:09:19;;;;;;;;;;;;;;;;;;5011495;28;19933;-69
2021/01/03 10:11:46;;;;;;;;;;;;;;;;;;5009070;28;19929;-70
2021/01/03 10:14:12;;;;;;;;;;;;;;;;;;5009807;28;20579;-70
2021/01/03 10:16:39;;;;;;;;;;;;;;;;;;5011295;28;20036;-68
2021/01/03 10:19:05;;;;;;;;;;;;;;;;;;5011849;28;19947;-69
2021/01/03 10:21:32;;;;;;;;;;;;;;;;;;5011369;28;19925;-69
2021/01/03 10:23:58;;;;;;;;;;;;;;;;;;5010258;28;19925;-69
2021/01/03 10:26:24;;;;;;;;;;;;;;;;;;5005488;28;19929;-69
2021/01/03 10:28:51;;;;;;;;;;;;;;;;;;5008584;28;19964;-69
2021/01/03 10:31:18;;;;;;;;;;;;;;;;;;5010515;28;19930;-69
2021/01/03 10:33:44;;;;;;;;;;;;;;;;;;5011350;28;19932;-70
2021/01/03 10:36:11;;;;;;;;;;;;;;;;;;5006210;28;20020;-69
2021/01/03 10:38:37;;;;;;;;;;;;;;;;;;5012212;28;19929;-68
2021/01/03 10:41:04;;;;;;;;;;;;;;;;;;5011900;28;19925;-68
2021/01/03 10:43:30;;;;;;;;;;;;;;;;;;5007820;28;19930;-69
2021/01/03 10:45:56;;;;;;;;;;;;;;;;;;5010972;28;20332;-69
2021/01/03 10:48:23;;;;;;;;;;;;;;;;;;5007307;28;19925;-69
2021/01/03 10:50:49;;;;;;;;;;;;;;;;;;5011868;28;19972;-69
2021/01/03 10:53:16;;;;;;;;;;;;;;;;;;5009780;28;19925;-69
2021/01/03 10:55:42;;;;;;;;;;;;;;;;;;5005484;28;20399;-70
2021/01/03 10:58:09;;;;;;;;;;;;;;;;;;5007663;28;20013;-70
2021/01/03 11:00:35;;;;;;;;;;;;;;;;;;5010698;28;20056;-70
2021/01/03 11:03:02;;;;;;;;;;;;;;;;;;5009706;28;19925;-70
2021/01/03 11:05:28;;;;;;;;;;;;;;;;;;5004194;28;20048;-70
2021/01/03 11:07:55;;;;;;;;;;;;;;;;;;5007739;28;20403;-71
2021/01/03 11:10:21;;;;;;;;;;;;;;;;;;5007517;28;19960;-70
2021/01/03 11:12:48;;;;;;;;;;;;;;;;;;5008700;28;19932;-69
2021/01/03 11:15:14;;;;;;;;;;;;;;;;;;5007383;28;19929;-70
2021/01/03 11:17:41;;;;;;;;;;;;;;;;;;5022643;23;20398;-65
2021/01/03 11:20:07;;;;;;;;;;;;;;;;;;5001713;28;20351;-66
2021/01/03 11:22:33;;;;;;;;;;;;;;;;;;5006459;28;19987;-66
2021/01/03 11:25:00;;;;;;;;;;;;;;;;;;5008499;28;19926;-65
2021/01/03 11:27:26;;;;;;;;;;;;;;;;;;5007087;28;19931;-65
2021/01/03 11:29:53;;;;;;;;;;;;;;;;;;5007497;28;19933;-65
2021/01/03 11:32:19;;;;;;;;;;;;;;;;;;5009289;28;19926;-66
2021/01/03 11:34:46;;;;;;;;;;;;;;;;;;5007931;28;19934;-65
2021/01/03 11:37:12;;;;;;;;;;;;;;;;;;5003767;28;19932;-65
2021/01/03 11:39:39;;;;;;;;;;;;;;;;;;5009154;28;19925;-68
2021/01/03 11:42:05;;;;;;;;;;;;;;;;;;5005910;28;20428;-66
2021/01/03 11:44:32;;;;;;;;;;;;;;;;;;5006499;28;20020;-65
2021/01/03 11:46:58;;;;;;;;;;;;;;;;;;5005112;28;20072;-66
2021/01/03 11:49:25;;;;;;;;;;;;;;;;;;5004001;28;20699;-66
2021/01/03 11:51:51;;;;;;;;;;;;;;;;;;5002185;28;20012;-65
2021/01/03 11:54:17;;;;;;;;;;;;;;;;;;5011327;28;20020;-65
2021/01/03 11:56:44;;;;;;;;;;;;;;;;;;5007486;28;19932;-65
2021/01/03 11:59:10;;;;;;;;;;;;;;;;;;5010164;28;19933;-64
2021/01/03 12:01:37;;;;;;;;;;;;;;;;;;5006777;28;19932;-64
2021/01/03 12:04:03;;;;;;;;;;;;;;;;;;5007930;28;20315;-64
2021/01/03 12:06:30;;;;;;;;;;;;;;;;;;5008979;28;20595;-65
2021/01/03 12:08:56;;;;;;;;;;;;;;;;;;5007030;28;20299;-65
2021/01/03 12:11:23;;;;;;;;;;;;;;;;;;5006056;28;19932;-65
2021/01/03 12:13:49;;;;;;;;;;;;;;;;;;5007196;28;20358;-65
2021/01/03 12:16:16;;;;;;;;;;;;;;;;;;5010161;28;20064;-64
2021/01/03 12:18:42;;;;;;;;;;;;;;;;;;5007780;28;19926;-65
2021/01/03 12:21:09;;;;;;;;;;;;;;;;;;5005406;28;19932;-65
2021/01/03 12:23:35;;;;;;;;;;;;;;;;;;5009675;28;20025;-64
2021/01/03 12:26:02;;;;;;;;;;;;;;;;;;5002696;28;20075;-64
2021/01/03 12:28:28;;;;;;;;;;;;;;;;;;5003261;28;19930;-65
2021/01/03 12:30:54;;;;;;;;;;;;;;;;;;4999083;28;19933;-65
2021/01/03 12:33:21;;;;;;;;;;;;;;;;;;5011020;28;20399;-65
2021/01/03 12:35:47;;;;;;;;;;;;;;;;;;5007104;28;19953;-65
2021/01/03 12:38:14;;;;;;;;;;;;;;;;;;5010885;28;19926;-65
2021/01/03 12:40:40;;;;;;;;;;;;;;;;;;5006187;28;20139;-64
2021/01/03 12:43:07;;;;;;;;;;;;;;;;;;5005992;28;21972;-65
2021/01/03 12:45:33;;;;;;;;;;;;;;;;;;5008154;28;19936;-65
2021/01/03 12:48:00;;;;;;;;;;;;;;;;;;5008039;28;19932;-64
2021/01/03 12:50:26;;;;;;;;;;;;;;;;;;5007542;28;20020;-64
2021/01/03 12:52:53;;;;;;;;;;;;;;;;;;5008388;28;19926;-66
2021/01/03 12:55:19;;;;;;;;;;;;;;;;;;5010067;28;20395;-66
2021/01/03 12:57:45;;;;;;;;;;;;;;;;;;5009066;28;20391;-66
2021/01/03 13:00:12;;;;;;;;;;;;;;;;;;5005226;28;19956;-66
2021/01/03 13:02:38;;;;;;;;;;;;;;;;;;5006392;28;19925;-66
2021/01/03 13:05:05;;;;;;;;;;;;;;;;;;5007719;28;19956;-66
2021/01/03 13:07:31;;;;;;;;;;;;;;;;;;5002369;28;19925;-65
2021/01/03 13:09:58;;;;;;;;;;;;;;;;;;5000818;28;20402;-65
2021/01/03 13:12:24;;;;;;;;;;;;;;;;;;5002465;28;19980;-65
2021/01/03 13:14:51;;;;;;;;;;;;;;;;;;5006184;28;19936;-66
2021/01/03 13:17:17;;;;;;;;;;;;;;;;;;5003235;28;19926;-65
2021/01/03 13:19:44;;;;;;;;;;;;;;;;;;5012276;28;19925;-65
2021/01/03 13:22:10;;;;;;;;;;;;;;;;;;5007831;28;19974;-64
2021/01/03 13:24:37;;;;;;;;;;;;;;;;;;4997829;28;19932;-65
2021/01/03 13:27:03;;;;;;;;;;;;;;;;;;5006858;28;19925;-65
2021/01/03 13:29:30;;;;;;;;;;;;;;;;;;5009369;28;19983;-64
2021/01/03 13:31:56;;;;;;;;;;;;;;;;;;5014945;28;19925;-64
2021/01/03 13:34:22;;;;;;;;;;;;;;;;;;5015498;28;20016;-64
2021/01/03 13:36:49;;;;;;;;;;;;;;;;;;5013208;28;20024;-64
2021/01/03 13:39:16;;;;;;;;;;;;;;;;;;5010073;28;19925;-64
2021/01/03 13:41:43;;;;;;;;;;;;;;;;;;4999954;28;20044;-64
2021/01/03 13:44:11;;;;;;;;;;;;;;;;;;5007433;28;19932;-64
2021/01/03 13:46:37;;;;;;;;;;;;;;;;;;5005915;28;19926;-64
2021/01/03 13:49:04;;;;;;;;;;;;;;;;;;4992745;28;19926;-64
2021/01/03 13:51:30;;;;;;;;;;;;;;;;;;5010512;28;19930;-65
2021/01/03 13:53:57;;;;;;;;;;;;;;;;;;5012279;28;19969;-66
2021/01/03 13:56:23;;;;;;;;;;;;;;;;;;5007849;28;19971;-64
2021/01/03 13:58:51;;;;;;;;;;;;;;;;;;5012511;28;19929;-64
2021/01/03 14:01:17;;;;;;;;;;;;;;;;;;5009536;28;19929;-65
2021/01/03 14:03:44;;;;;;;;;;;;;;;;;;4999558;28;19933;-65
2021/01/03 14:06:10;;;;;;;;;;;;;;;;;;5003852;28;19926;-65
2021/01/03 14:08:37;;;;;;;;;;;;;;;;;;5000451;28;19933;-65
2021/01/03 14:11:03;;;;;;;;;;;;;;;;;;5012473;28;19926;-65
2021/01/03 14:13:29;;;;;;;;;;;;;;;;;;5004460;28;19926;-65
2021/01/03 14:15:56;;;;;;;;;;;;;;;;;;5005349;28;20016;-65
2021/01/03 14:18:22;;;;;;;;;;;;;;;;;;5011892;28;19925;-65
2021/01/03 14:20:49;;;;;;;;;;;;;;;;;;5008789;28;19965;-65
2021/01/03 14:23:15;;;;;;;;;;;;;;;;;;4992400;28;20013;-65
2021/01/03 14:25:42;;;;;;;;;;;;;;;;;;5010366;28;19984;-64
2021/01/03 14:28:08;;;;;;;;;;;;;;;;;;5006074;28;20008;-64
2021/01/03 14:30:35;;;;;;;;;;;;;;;;;;5009408;28;19929;-64
2021/01/03 14:33:02;;;;;;;;;;;;;;;;;;5011782;28;19940;-64
2021/01/03 14:35:28;;;;;;;;;;;;;;;;;;4996340;28;20032;-65
2021/01/03 14:37:55;;;;;;;;;;;;;;;;;;4996671;28;19929;-64
2021/01/03 14:40:21;;;;;;;;;;;;;;;;;;5002993;28;19926;-63
2021/01/03 14:42:48;;;;;;;;;;;;;;;;;;5006542;28;19925;-63
2021/01/03 14:45:14;;;;;;;;;;;;;;;;;;5014361;28;20191;-64
2021/01/03 14:47:41;;;;;;;;;;;;;;;;;;5015427;28;19936;-64
2021/01/03 14:50:07;;;;;;;;;;;;;;;;;;5015398;28;19926;-63
2021/01/03 14:52:34;;;;;;;;;;;;;;;;;;5015804;28;20354;-64
2021/01/03 14:55:00;;;;;;;;;;;;;;;;;;5002615;28;19997;-64
2021/01/03 14:57:26;;;;;;;;;;;;;;;;;;4995847;28;19926;-64
2021/01/03 14:59:53;;;;;;;;;;;;;;;;;;5014732;28;20017;-64
2021/01/03 15:02:19;;;;;;;;;;;;;;;;;;5002144;28;20306;-64
2021/01/03 15:04:46;;;;;;;;;;;;;;;;;;5015436;28;20039;-64
2021/01/03 15:07:12;;;;;;;;;;;;;;;;;;5015307;28;19925;-64
2021/01/03 15:09:39;;;;;;;;;;;;;;;;;;5013359;28;20024;-64
2021/01/03 15:12:05;;;;;;;;;;;;;;;;;;5008366;28;19925;-65
2021/01/03 15:14:32;;;;;;;;;;;;;;;;;;5014819;28;20016;-64
2021/01/03 15:16:58;;;;;;;;;;;;;;;;;;5015096;28;19972;-64
2021/01/03 15:19:25;;;;;;;;;;;;;;;;;;5003406;28;19940;-64
2021/01/03 15:21:51;;;;;;;;;;;;;;;;;;5010147;28;20187;-64
2021/01/03 15:24:19;;;;;;;;;;;;;;;;;;5006777;28;19926;-63
2021/01/03 15:26:45;;;;;;;;;;;;;;;;;;5008951;28;20476;-64
2021/01/03 15:29:12;;;;;;;;;;;;;;;;;;5002938;28;20355;-64
2021/01/03 15:31:38;;;;;;;;;;;;;;;;;;4995519;28;19925;-64
2021/01/03 15:34:05;;;;;;;;;;;;;;;;;;5014094;28;19929;-63
2021/01/03 15:36:31;;;;;;;;;;;;;;;;;;5014486;28;20020;-64
2021/01/03 15:38:58;;;;;;;;;;;;;;;;;;5003489;28;19972;-64
2021/01/03 15:41:24;;;;;;;;;;;;;;;;;;5002205;28;20016;-64
2021/01/03 15:43:51;;;;;;;;;;;;;;;;;;5014926;28;20486;-64
2021/01/03 15:46:17;;;;;;;;;;;;;;;;;;5015584;28;20016;-65
2021/01/03 15:48:44;;;;;;;;;;;;;;;;;;5009033;28;20432;-64
2021/01/03 15:51:10;;;;;;;;;;;;;;;;;;5012537;28;20020;-64
2021/01/03 15:53:37;;;;;;;;;;;;;;;;;;5014430;28;19957;-64
2021/01/03 15:56:03;;;;;;;;;;;;;;;;;;5014207;28;20462;-64
2021/01/03 15:58:30;;;;;;;;;;;;;;;;;;5011281;28;19932;-64
2021/01/03 16:00:57;;;;;;;;;;;;;;;;;;5007989;28;20018;-64
2021/01/03 16:03:23;;;;;;;;;;;;;;;;;;5004355;28;19926;-64
2021/01/03 16:05:50;;;;;;;;;;;;;;;;;;4994888;28;20392;-63
2021/01/03 16:08:16;;;;;;;;;;;;;;;;;;4998192;28;20005;-64
2021/01/03 16:10:43;;;;;;;;;;;;;;;;;;5014094;28;19925;-63
2021/01/03 16:13:09;;;;;;;;;;;;;;;;;;5011431;28;20012;-63
2021/01/03 16:15:37;;;;;;;;;;;;;;;;;;5005306;28;19926;-64
2021/01/03 16:18:04;;;;;;;;;;;;;;;;;;5005350;28;19930;-64
2021/01/03 16:20:30;;;;;;;;;;;;;;;;;;5011542;28;19929;-64
2021/01/03 16:22:57;;;;;;;;;;;;;;;;;;5013906;28;20008;-64
2021/01/03 16:25:23;;;;;;;;;;;;;;;;;;5014145;28;19931;-64
2021/01/03 16:27:50;;;;;;;;;;;;;;;;;;5013845;28;19925;-64
2021/01/03 16:30:16;;;;;;;;;;;;;;;;;;5014197;28;19932;-64
2021/01/03 16:32:43;;;;;;;;;;;;;;;;;;5003024;28;19925;-64
2021/01/03 16:35:09;;;;;;;;;;;;;;;;;;4993929;28;20047;-64
2021/01/03 16:37:36;;;;;;;;;;;;;;;;;;4994373;28;19951;-64
2021/01/03 16:40:02;;;;;;;;;;;;;;;;;;4994215;28;20057;-65